sensor_id;sensor_type;location;lat;lon;timestamp;P1;durP1;ratioP1;P2;durP2;ratioP2
5585;SDS011;2815;54.094;12.112;2023-08-24T00:00:48;8.02;;;2.10;;
5585;SDS011;2815;54.094;12.112;2023-08-24T00:03:16;3.75;;;2.05;;
5585;SDS011;2815;54.094;12.112;2023-08-24T00:05:44;5.72;;;2.08;;
5585;SDS011;2815;54.094;12.112;2023-08-24T00:08:12;2.70;;;1.85;;
5585;SDS011;2815;54.094;12.112;2023-08-24T00:10:42;5.35;;;1.90;;
5585;SDS011;2815;54.094;12.112;2023-08-24T00:13:14;4.80;;;1.83;;
5585;SDS011;2815;54.094;12.112;2023-08-24T00:15:43;3.00;;;2.03;;
5585;SDS011;2815;54.094;12.112;2023-08-24T00:18:12;3.70;;;2.00;;
5585;SDS011;2815;54.094;12.112;2023-08-24T00:20:40;3.83;;;2.30;;
5585;SDS011;2815;54.094;12.112;2023-08-24T00:23:08;5.53;;;2.15;;
5585;SDS011;2815;54.094;12.112;2023-08-24T00:25:37;5.97;;;2.55;;
5585;SDS011;2815;54.094;12.112;2023-08-24T00:28:07;3.25;;;2.17;;
5585;SDS011;2815;54.094;12.112;2023-08-24T00:30:36;4.13;;;1.98;;
5585;SDS011;2815;54.094;12.112;2023-08-24T00:33:05;4.55;;;2.20;;
5585;SDS011;2815;54.094;12.112;2023-08-24T00:35:35;5.97;;;2.30;;
5585;SDS011;2815;54.094;12.112;2023-08-24T00:38:03;3.25;;;2.40;;
5585;SDS011;2815;54.094;12.112;2023-08-24T00:40:32;3.13;;;2.20;;
5585;SDS011;2815;54.094;12.112;2023-08-24T00:43:01;4.85;;;2.03;;
5585;SDS011;2815;54.094;12.112;2023-08-24T00:45:29;6.35;;;2.10;;
5585;SDS011;2815;54.094;12.112;2023-08-24T00:47:59;4.53;;;2.30;;
5585;SDS011;2815;54.094;12.112;2023-08-24T00:50:29;4.43;;;2.17;;
5585;SDS011;2815;54.094;12.112;2023-08-24T00:52:57;3.58;;;1.88;;
5585;SDS011;2815;54.094;12.112;2023-08-24T00:55:24;2.95;;;1.90;;
5585;SDS011;2815;54.094;12.112;2023-08-24T00:57:53;4.60;;;1.95;;
5585;SDS011;2815;54.094;12.112;2023-08-24T01:00:21;3.00;;;1.95;;
5585;SDS011;2815;54.094;12.112;2023-08-24T01:02:50;4.60;;;2.22;;
5585;SDS011;2815;54.094;12.112;2023-08-24T01:05:18;4.55;;;2.17;;
5585;SDS011;2815;54.094;12.112;2023-08-24T01:07:47;6.45;;;2.10;;
5585;SDS011;2815;54.094;12.112;2023-08-24T01:10:16;2.17;;;1.60;;
5585;SDS011;2815;54.094;12.112;2023-08-24T01:12:52;2.38;;;1.75;;
5585;SDS011;2815;54.094;12.112;2023-08-24T01:15:27;3.05;;;1.80;;
5585;SDS011;2815;54.094;12.112;2023-08-24T01:18:03;3.00;;;1.52;;
5585;SDS011;2815;54.094;12.112;2023-08-24T01:20:33;3.25;;;1.63;;
5585;SDS011;2815;54.094;12.112;2023-08-24T01:23:07;4.88;;;2.40;;
5585;SDS011;2815;54.094;12.112;2023-08-24T01:25:48;4.20;;;2.15;;
5585;SDS011;2815;54.094;12.112;2023-08-24T01:28:21;6.10;;;2.17;;
5585;SDS011;2815;54.094;12.112;2023-08-24T01:30:51;2.40;;;1.73;;
5585;SDS011;2815;54.094;12.112;2023-08-24T01:33:19;3.92;;;1.88;;
5585;SDS011;2815;54.094;12.112;2023-08-24T01:35:52;2.90;;;1.75;;
5585;SDS011;2815;54.094;12.112;2023-08-24T01:38:20;6.72;;;2.47;;
5585;SDS011;2815;54.094;12.112;2023-08-24T01:40:53;3.20;;;2.10;;
5585;SDS011;2815;54.094;12.112;2023-08-24T01:43:28;6.25;;;1.80;;
5585;SDS011;2815;54.094;12.112;2023-08-24T01:46:09;4.03;;;1.95;;
5585;SDS011;2815;54.094;12.112;2023-08-24T01:48:39;3.10;;;1.90;;
5585;SDS011;2815;54.094;12.112;2023-08-24T01:51:07;5.97;;;1.80;;
5585;SDS011;2815;54.094;12.112;2023-08-24T01:53:37;3.88;;;1.75;;
5585;SDS011;2815;54.094;12.112;2023-08-24T01:56:09;3.90;;;1.77;;
5585;SDS011;2815;54.094;12.112;2023-08-24T01:58:39;3.30;;;1.87;;
5585;SDS011;2815;54.094;12.112;2023-08-24T02:01:07;3.25;;;2.00;;
5585;SDS011;2815;54.094;12.112;2023-08-24T02:03:36;2.30;;;1.60;;
5585;SDS011;2815;54.094;12.112;2023-08-24T02:06:06;3.08;;;1.70;;
5585;SDS011;2815;54.094;12.112;2023-08-24T02:08:34;2.70;;;1.75;;
5585;SDS011;2815;54.094;12.112;2023-08-24T02:11:02;4.45;;;1.80;;
5585;SDS011;2815;54.094;12.112;2023-08-24T02:13:31;2.72;;;2.00;;
5585;SDS011;2815;54.094;12.112;2023-08-24T02:16:02;3.55;;;1.88;;
5585;SDS011;2815;54.094;12.112;2023-08-24T02:18:30;3.20;;;2.30;;
5585;SDS011;2815;54.094;12.112;2023-08-24T02:20:59;3.10;;;1.80;;
5585;SDS011;2815;54.094;12.112;2023-08-24T02:23:29;2.53;;;2.00;;
5585;SDS011;2815;54.094;12.112;2023-08-24T02:25:56;5.13;;;1.98;;
5585;SDS011;2815;54.094;12.112;2023-08-24T02:28:24;2.35;;;1.40;;
5585;SDS011;2815;54.094;12.112;2023-08-24T02:30:52;3.42;;;1.70;;
5585;SDS011;2815;54.094;12.112;2023-08-24T02:33:22;5.28;;;2.10;;
5585;SDS011;2815;54.094;12.112;2023-08-24T02:35:50;3.67;;;2.00;;
5585;SDS011;2815;54.094;12.112;2023-08-24T02:38:17;5.25;;;2.20;;
5585;SDS011;2815;54.094;12.112;2023-08-24T02:40:45;3.38;;;2.20;;
5585;SDS011;2815;54.094;12.112;2023-08-24T02:43:13;5.10;;;2.65;;
5585;SDS011;2815;54.094;12.112;2023-08-24T02:45:41;4.22;;;2.28;;
5585;SDS011;2815;54.094;12.112;2023-08-24T02:48:10;7.45;;;2.45;;
5585;SDS011;2815;54.094;12.112;2023-08-24T02:50:39;4.00;;;2.38;;
5585;SDS011;2815;54.094;12.112;2023-08-24T02:53:07;4.40;;;2.30;;
5585;SDS011;2815;54.094;12.112;2023-08-24T02:55:35;5.22;;;2.65;;
5585;SDS011;2815;54.094;12.112;2023-08-24T02:58:04;5.13;;;2.10;;
5585;SDS011;2815;54.094;12.112;2023-08-24T03:00:32;3.92;;;2.50;;
5585;SDS011;2815;54.094;12.112;2023-08-24T03:03:00;7.30;;;2.40;;
5585;SDS011;2815;54.094;12.112;2023-08-24T03:05:29;5.38;;;2.70;;
5585;SDS011;2815;54.094;12.112;2023-08-24T03:07:58;2.92;;;2.20;;
5585;SDS011;2815;54.094;12.112;2023-08-24T03:10:26;4.10;;;2.55;;
5585;SDS011;2815;54.094;12.112;2023-08-24T03:12:54;5.60;;;2.38;;
5585;SDS011;2815;54.094;12.112;2023-08-24T03:15:23;5.50;;;2.13;;
5585;SDS011;2815;54.094;12.112;2023-08-24T03:17:51;5.82;;;2.20;;
5585;SDS011;2815;54.094;12.112;2023-08-24T03:20:19;3.75;;;2.30;;
5585;SDS011;2815;54.094;12.112;2023-08-24T03:22:48;4.00;;;2.20;;
5585;SDS011;2815;54.094;12.112;2023-08-24T03:25:18;3.92;;;1.90;;
5585;SDS011;2815;54.094;12.112;2023-08-24T03:27:46;3.28;;;2.25;;
5585;SDS011;2815;54.094;12.112;2023-08-24T03:30:15;3.83;;;2.22;;
5585;SDS011;2815;54.094;12.112;2023-08-24T03:32:43;3.30;;;2.33;;
5585;SDS011;2815;54.094;12.112;2023-08-24T03:35:11;4.20;;;2.20;;
5585;SDS011;2815;54.094;12.112;2023-08-24T03:37:39;5.90;;;2.55;;
5585;SDS011;2815;54.094;12.112;2023-08-24T03:40:11;3.03;;;2.10;;
5585;SDS011;2815;54.094;12.112;2023-08-24T03:42:41;4.15;;;1.83;;
5585;SDS011;2815;54.094;12.112;2023-08-24T03:45:09;4.88;;;2.40;;
5585;SDS011;2815;54.094;12.112;2023-08-24T03:47:37;4.45;;;2.20;;
5585;SDS011;2815;54.094;12.112;2023-08-24T03:50:06;3.70;;;2.38;;
5585;SDS011;2815;54.094;12.112;2023-08-24T03:52:35;3.08;;;2.10;;
5585;SDS011;2815;54.094;12.112;2023-08-24T03:55:04;4.75;;;2.08;;
5585;SDS011;2815;54.094;12.112;2023-08-24T03:57:33;2.92;;;2.15;;
5585;SDS011;2815;54.094;12.112;2023-08-24T04:00:03;4.43;;;2.20;;
5585;SDS011;2815;54.094;12.112;2023-08-24T04:02:39;6.13;;;2.60;;
5585;SDS011;2815;54.094;12.112;2023-08-24T04:07:40;4.43;;;2.15;;
5585;SDS011;2815;54.094;12.112;2023-08-24T04:10:09;4.75;;;2.30;;
5585;SDS011;2815;54.094;12.112;2023-08-24T04:12:37;4.45;;;2.40;;
5585;SDS011;2815;54.094;12.112;2023-08-24T04:15:08;4.05;;;1.90;;
5585;SDS011;2815;54.094;12.112;2023-08-24T04:17:39;3.33;;;2.15;;
5585;SDS011;2815;54.094;12.112;2023-08-24T04:20:10;4.15;;;2.47;;
5585;SDS011;2815;54.094;12.112;2023-08-24T04:22:39;6.15;;;2.38;;
5585;SDS011;2815;54.094;12.112;2023-08-24T04:25:10;4.00;;;1.90;;
5585;SDS011;2815;54.094;12.112;2023-08-24T04:27:38;3.95;;;2.10;;
5585;SDS011;2815;54.094;12.112;2023-08-24T04:30:08;3.40;;;1.73;;
5585;SDS011;2815;54.094;12.112;2023-08-24T04:32:40;3.05;;;2.03;;
5585;SDS011;2815;54.094;12.112;2023-08-24T04:35:08;3.67;;;2.22;;
5585;SDS011;2815;54.094;12.112;2023-08-24T04:37:37;4.47;;;2.13;;
5585;SDS011;2815;54.094;12.112;2023-08-24T04:40:06;4.95;;;2.05;;
5585;SDS011;2815;54.094;12.112;2023-08-24T04:42:38;6.50;;;2.28;;
5585;SDS011;2815;54.094;12.112;2023-08-24T04:45:08;5.05;;;2.40;;
5585;SDS011;2815;54.094;12.112;2023-08-24T04:47:37;5.97;;;1.90;;
5585;SDS011;2815;54.094;12.112;2023-08-24T04:50:06;3.60;;;2.10;;
5585;SDS011;2815;54.094;12.112;2023-08-24T04:52:37;4.88;;;2.60;;
5585;SDS011;2815;54.094;12.112;2023-08-24T04:55:05;4.07;;;1.92;;
5585;SDS011;2815;54.094;12.112;2023-08-24T04:57:35;4.05;;;2.08;;
5585;SDS011;2815;54.094;12.112;2023-08-24T05:00:03;4.32;;;1.77;;
5585;SDS011;2815;54.094;12.112;2023-08-24T05:02:40;4.22;;;1.58;;
5585;SDS011;2815;54.094;12.112;2023-08-24T05:05:09;6.82;;;2.20;;
5585;SDS011;2815;54.094;12.112;2023-08-24T05:07:37;4.65;;;1.98;;
5585;SDS011;2815;54.094;12.112;2023-08-24T05:10:06;5.55;;;2.35;;
5585;SDS011;2815;54.094;12.112;2023-08-24T05:12:34;4.18;;;1.90;;
5585;SDS011;2815;54.094;12.112;2023-08-24T05:15:03;4.65;;;1.95;;
5585;SDS011;2815;54.094;12.112;2023-08-24T05:17:32;4.65;;;1.77;;
5585;SDS011;2815;54.094;12.112;2023-08-24T05:20:03;13.32;;;2.10;;
5585;SDS011;2815;54.094;12.112;2023-08-24T05:22:34;4.18;;;1.95;;
5585;SDS011;2815;54.094;12.112;2023-08-24T05:25:05;4.32;;;2.30;;
5585;SDS011;2815;54.094;12.112;2023-08-24T05:27:33;5.78;;;2.00;;
5585;SDS011;2815;54.094;12.112;2023-08-24T05:30:02;5.28;;;1.80;;
5585;SDS011;2815;54.094;12.112;2023-08-24T05:32:32;4.40;;;1.70;;
5585;SDS011;2815;54.094;12.112;2023-08-24T05:35:07;6.03;;;1.60;;
5585;SDS011;2815;54.094;12.112;2023-08-24T05:37:38;6.18;;;2.20;;
5585;SDS011;2815;54.094;12.112;2023-08-24T05:40:07;6.85;;;1.98;;
5585;SDS011;2815;54.094;12.112;2023-08-24T05:42:36;4.38;;;1.83;;
5585;SDS011;2815;54.094;12.112;2023-08-24T05:45:04;3.15;;;1.65;;
5585;SDS011;2815;54.094;12.112;2023-08-24T05:47:33;3.65;;;1.58;;
5585;SDS011;2815;54.094;12.112;2023-08-24T05:50:02;5.85;;;1.77;;
5585;SDS011;2815;54.094;12.112;2023-08-24T05:52:31;4.45;;;1.80;;
5585;SDS011;2815;54.094;12.112;2023-08-24T05:54:59;3.55;;;1.67;;
5585;SDS011;2815;54.094;12.112;2023-08-24T05:57:28;3.53;;;1.80;;
5585;SDS011;2815;54.094;12.112;2023-08-24T05:59:56;3.15;;;1.88;;
5585;SDS011;2815;54.094;12.112;2023-08-24T06:02:24;5.55;;;1.67;;
5585;SDS011;2815;54.094;12.112;2023-08-24T06:04:52;8.43;;;1.33;;
5585;SDS011;2815;54.094;12.112;2023-08-24T06:07:20;2.85;;;1.23;;
5585;SDS011;2815;54.094;12.112;2023-08-24T06:09:51;4.05;;;1.10;;
5585;SDS011;2815;54.094;12.112;2023-08-24T06:12:19;3.80;;;1.30;;
5585;SDS011;2815;54.094;12.112;2023-08-24T06:14:54;3.58;;;1.10;;
5585;SDS011;2815;54.094;12.112;2023-08-24T06:17:48;3.53;;;1.02;;
5585;SDS011;2815;54.094;12.112;2023-08-24T06:20:19;2.58;;;1.00;;
5585;SDS011;2815;54.094;12.112;2023-08-24T06:22:48;9.18;;;1.30;;
5585;SDS011;2815;54.094;12.112;2023-08-24T06:25:19;5.30;;;1.50;;
5585;SDS011;2815;54.094;12.112;2023-08-24T06:27:48;4.47;;;1.40;;
5585;SDS011;2815;54.094;12.112;2023-08-24T06:30:17;2.67;;;1.50;;
5585;SDS011;2815;54.094;12.112;2023-08-24T06:32:46;7.43;;;1.35;;
5585;SDS011;2815;54.094;12.112;2023-08-24T06:35:14;2.35;;;1.42;;
5585;SDS011;2815;54.094;12.112;2023-08-24T06:37:42;3.35;;;1.00;;
5585;SDS011;2815;54.094;12.112;2023-08-24T06:40:11;4.40;;;1.20;;
5585;SDS011;2815;54.094;12.112;2023-08-24T06:42:41;4.43;;;0.98;;
5585;SDS011;2815;54.094;12.112;2023-08-24T06:45:10;3.92;;;1.08;;
5585;SDS011;2815;54.094;12.112;2023-08-24T06:47:39;2.22;;;1.05;;
5585;SDS011;2815;54.094;12.112;2023-08-24T06:50:07;2.63;;;1.10;;
5585;SDS011;2815;54.094;12.112;2023-08-24T06:52:36;4.22;;;1.30;;
5585;SDS011;2815;54.094;12.112;2023-08-24T06:55:04;2.92;;;1.15;;
5585;SDS011;2815;54.094;12.112;2023-08-24T06:57:34;4.80;;;1.20;;
5585;SDS011;2815;54.094;12.112;2023-08-24T07:00:04;2.10;;;1.17;;
5585;SDS011;2815;54.094;12.112;2023-08-24T07:02:35;2.60;;;1.30;;
5585;SDS011;2815;54.094;12.112;2023-08-24T07:05:04;3.33;;;1.30;;
5585;SDS011;2815;54.094;12.112;2023-08-24T07:07:34;2.88;;;1.00;;
5585;SDS011;2815;54.094;12.112;2023-08-24T07:10:03;1.88;;;1.10;;
5585;SDS011;2815;54.094;12.112;2023-08-24T07:12:32;4.03;;;1.00;;
5585;SDS011;2815;54.094;12.112;2023-08-24T07:15:01;2.10;;;1.00;;
5585;SDS011;2815;54.094;12.112;2023-08-24T07:17:31;3.47;;;1.02;;
5585;SDS011;2815;54.094;12.112;2023-08-24T07:19:59;2.30;;;0.90;;
5585;SDS011;2815;54.094;12.112;2023-08-24T07:22:27;3.88;;;1.00;;
5585;SDS011;2815;54.094;12.112;2023-08-24T07:24:55;5.88;;;1.10;;
5585;SDS011;2815;54.094;12.112;2023-08-24T07:27:23;1.55;;;0.68;;
5585;SDS011;2815;54.094;12.112;2023-08-24T07:29:51;3.17;;;0.82;;
5585;SDS011;2815;54.094;12.112;2023-08-24T07:32:19;2.28;;;0.80;;
5585;SDS011;2815;54.094;12.112;2023-08-24T07:34:49;1.00;;;0.75;;
5585;SDS011;2815;54.094;12.112;2023-08-24T07:37:17;4.40;;;1.00;;
5585;SDS011;2815;54.094;12.112;2023-08-24T07:39:45;3.22;;;0.82;;
5585;SDS011;2815;54.094;12.112;2023-08-24T07:42:13;1.60;;;0.85;;
5585;SDS011;2815;54.094;12.112;2023-08-24T07:44:41;3.90;;;0.82;;
5585;SDS011;2815;54.094;12.112;2023-08-24T07:47:09;1.70;;;0.65;;
5585;SDS011;2815;54.094;12.112;2023-08-24T07:49:37;1.33;;;0.88;;
5585;SDS011;2815;54.094;12.112;2023-08-24T07:52:11;0.70;;;0.60;;
5585;SDS011;2815;54.094;12.112;2023-08-24T07:54:39;3.72;;;0.98;;
5585;SDS011;2815;54.094;12.112;2023-08-24T07:57:07;3.17;;;0.70;;
5585;SDS011;2815;54.094;12.112;2023-08-24T07:59:35;2.50;;;0.70;;
5585;SDS011;2815;54.094;12.112;2023-08-24T08:02:04;2.25;;;0.90;;
5585;SDS011;2815;54.094;12.112;2023-08-24T08:04:32;2.08;;;0.80;;
5585;SDS011;2815;54.094;12.112;2023-08-24T08:07:00;2.83;;;0.80;;
5585;SDS011;2815;54.094;12.112;2023-08-24T08:09:29;1.60;;;0.77;;
5585;SDS011;2815;54.094;12.112;2023-08-24T08:11:57;0.93;;;0.63;;
5585;SDS011;2815;54.094;12.112;2023-08-24T08:14:25;2.58;;;0.80;;
5585;SDS011;2815;54.094;12.112;2023-08-24T08:16:53;2.38;;;1.00;;
5585;SDS011;2815;54.094;12.112;2023-08-24T08:19:21;1.95;;;0.93;;
5585;SDS011;2815;54.094;12.112;2023-08-24T08:21:51;2.92;;;1.25;;
5585;SDS011;2815;54.094;12.112;2023-08-24T08:24:19;2.80;;;1.30;;
5585;SDS011;2815;54.094;12.112;2023-08-24T08:26:55;2.40;;;0.90;;
5585;SDS011;2815;54.094;12.112;2023-08-24T08:29:23;1.52;;;0.90;;
5585;SDS011;2815;54.094;12.112;2023-08-24T08:31:51;3.95;;;0.90;;
5585;SDS011;2815;54.094;12.112;2023-08-24T08:34:20;1.40;;;0.65;;
5585;SDS011;2815;54.094;12.112;2023-08-24T08:36:48;2.25;;;0.70;;
5585;SDS011;2815;54.094;12.112;2023-08-24T08:39:16;3.47;;;1.02;;
5585;SDS011;2815;54.094;12.112;2023-08-24T08:41:44;1.52;;;0.90;;
5585;SDS011;2815;54.094;12.112;2023-08-24T08:44:15;2.17;;;1.00;;
5585;SDS011;2815;54.094;12.112;2023-08-24T08:46:43;1.15;;;0.82;;
5585;SDS011;2815;54.094;12.112;2023-08-24T08:49:12;1.48;;;0.70;;
5585;SDS011;2815;54.094;12.112;2023-08-24T08:51:42;2.35;;;0.60;;
5585;SDS011;2815;54.094;12.112;2023-08-24T08:54:10;1.42;;;0.90;;
5585;SDS011;2815;54.094;12.112;2023-08-24T08:56:39;1.75;;;0.65;;
5585;SDS011;2815;54.094;12.112;2023-08-24T08:59:08;2.20;;;0.80;;
5585;SDS011;2815;54.094;12.112;2023-08-24T09:01:38;2.78;;;0.68;;
5585;SDS011;2815;54.094;12.112;2023-08-24T09:04:06;1.65;;;0.70;;
5585;SDS011;2815;54.094;12.112;2023-08-24T09:06:34;1.85;;;0.75;;
5585;SDS011;2815;54.094;12.112;2023-08-24T09:09:04;1.95;;;0.70;;
5585;SDS011;2815;54.094;12.112;2023-08-24T09:11:32;1.25;;;0.60;;
5585;SDS011;2815;54.094;12.112;2023-08-24T09:14:00;1.67;;;0.60;;
5585;SDS011;2815;54.094;12.112;2023-08-24T09:16:29;2.17;;;0.70;;
5585;SDS011;2815;54.094;12.112;2023-08-24T09:19:00;1.58;;;0.80;;
5585;SDS011;2815;54.094;12.112;2023-08-24T09:21:32;1.42;;;0.60;;
5585;SDS011;2815;54.094;12.112;2023-08-24T09:24:05;1.63;;;0.65;;
5585;SDS011;2815;54.094;12.112;2023-08-24T09:26:34;1.02;;;0.60;;
5585;SDS011;2815;54.094;12.112;2023-08-24T09:29:10;1.77;;;0.60;;
5585;SDS011;2815;54.094;12.112;2023-08-24T09:31:39;0.98;;;0.70;;
5585;SDS011;2815;54.094;12.112;2023-08-24T09:34:08;1.95;;;0.85;;
5585;SDS011;2815;54.094;12.112;2023-08-24T09:36:37;1.58;;;0.60;;
5585;SDS011;2815;54.094;12.112;2023-08-24T09:39:05;2.08;;;0.90;;
5585;SDS011;2815;54.094;12.112;2023-08-24T09:41:38;3.33;;;1.25;;
5585;SDS011;2815;54.094;12.112;2023-08-24T09:44:08;2.67;;;0.70;;
5585;SDS011;2815;54.094;12.112;2023-08-24T09:46:37;2.13;;;0.80;;
5585;SDS011;2815;54.094;12.112;2023-08-24T09:49:06;2.80;;;0.80;;
5585;SDS011;2815;54.094;12.112;2023-08-24T09:51:37;1.52;;;0.60;;
5585;SDS011;2815;54.094;12.112;2023-08-24T09:54:06;2.47;;;0.90;;
5585;SDS011;2815;54.094;12.112;2023-08-24T09:56:36;2.63;;;0.85;;
5585;SDS011;2815;54.094;12.112;2023-08-24T09:59:07;2.33;;;0.80;;
5585;SDS011;2815;54.094;12.112;2023-08-24T10:01:40;1.95;;;0.65;;
5585;SDS011;2815;54.094;12.112;2023-08-24T10:04:10;5.05;;;0.90;;
5585;SDS011;2815;54.094;12.112;2023-08-24T10:06:41;2.47;;;0.70;;
5585;SDS011;2815;54.094;12.112;2023-08-24T10:09:11;3.10;;;0.80;;
5585;SDS011;2815;54.094;12.112;2023-08-24T10:11:46;2.05;;;0.70;;
5585;SDS011;2815;54.094;12.112;2023-08-24T10:14:19;1.45;;;0.70;;
5585;SDS011;2815;54.094;12.112;2023-08-24T10:16:50;4.97;;;0.65;;
5585;SDS011;2815;54.094;12.112;2023-08-24T10:19:19;1.55;;;0.50;;
5585;SDS011;2815;54.094;12.112;2023-08-24T10:21:49;3.85;;;0.93;;
5585;SDS011;2815;54.094;12.112;2023-08-24T10:24:18;1.02;;;0.43;;
5585;SDS011;2815;54.094;12.112;2023-08-24T10:26:47;2.63;;;0.50;;
5585;SDS011;2815;54.094;12.112;2023-08-24T10:29:16;3.78;;;0.68;;
5585;SDS011;2815;54.094;12.112;2023-08-24T10:31:44;3.55;;;0.80;;
5585;SDS011;2815;54.094;12.112;2023-08-24T10:34:12;2.22;;;0.80;;
5585;SDS011;2815;54.094;12.112;2023-08-24T10:36:40;0.90;;;0.57;;
5585;SDS011;2815;54.094;12.112;2023-08-24T10:39:10;3.50;;;0.80;;
5585;SDS011;2815;54.094;12.112;2023-08-24T10:41:47;1.45;;;0.63;;
5585;SDS011;2815;54.094;12.112;2023-08-24T10:44:22;2.95;;;0.68;;
5585;SDS011;2815;54.094;12.112;2023-08-24T10:47:07;1.65;;;0.55;;
5585;SDS011;2815;54.094;12.112;2023-08-24T10:49:37;4.05;;;0.60;;
5585;SDS011;2815;54.094;12.112;2023-08-24T10:52:16;1.65;;;0.85;;
5585;SDS011;2815;54.094;12.112;2023-08-24T10:54:46;2.75;;;0.80;;
5585;SDS011;2815;54.094;12.112;2023-08-24T10:57:19;2.45;;;0.70;;
5585;SDS011;2815;54.094;12.112;2023-08-24T11:00:04;0.77;;;0.50;;
5585;SDS011;2815;54.094;12.112;2023-08-24T11:02:41;1.55;;;0.50;;
5585;SDS011;2815;54.094;12.112;2023-08-24T11:05:17;3.15;;;0.70;;
5585;SDS011;2815;54.094;12.112;2023-08-24T11:07:56;1.48;;;0.60;;
5585;SDS011;2815;54.094;12.112;2023-08-24T11:10:30;3.03;;;0.70;;
5585;SDS011;2815;54.094;12.112;2023-08-24T11:13:06;2.58;;;0.70;;
5585;SDS011;2815;54.094;12.112;2023-08-24T11:15:34;1.75;;;0.70;;
5585;SDS011;2815;54.094;12.112;2023-08-24T11:18:15;2.60;;;0.70;;
5585;SDS011;2815;54.094;12.112;2023-08-24T11:20:48;0.80;;;0.40;;
5585;SDS011;2815;54.094;12.112;2023-08-24T11:23:17;1.33;;;0.60;;
5585;SDS011;2815;54.094;12.112;2023-08-24T11:25:49;2.20;;;0.55;;
5585;SDS011;2815;54.094;12.112;2023-08-24T11:28:18;6.00;;;0.73;;
5585;SDS011;2815;54.094;12.112;2023-08-24T11:30:47;2.63;;;0.63;;
5585;SDS011;2815;54.094;12.112;2023-08-24T11:33:15;2.38;;;0.70;;
5585;SDS011;2815;54.094;12.112;2023-08-24T11:35:44;2.78;;;0.70;;
5585;SDS011;2815;54.094;12.112;2023-08-24T11:38:12;3.97;;;0.60;;
5585;SDS011;2815;54.094;12.112;2023-08-24T11:40:40;1.33;;;0.60;;
5585;SDS011;2815;54.094;12.112;2023-08-24T11:43:10;0.65;;;0.40;;
5585;SDS011;2815;54.094;12.112;2023-08-24T11:45:38;3.00;;;0.93;;
5585;SDS011;2815;54.094;12.112;2023-08-24T11:48:08;2.05;;;0.68;;
5585;SDS011;2815;54.094;12.112;2023-08-24T11:50:37;1.58;;;0.60;;
5585;SDS011;2815;54.094;12.112;2023-08-24T11:53:06;1.40;;;0.50;;
5585;SDS011;2815;54.094;12.112;2023-08-24T11:55:38;1.17;;;0.50;;
5585;SDS011;2815;54.094;12.112;2023-08-24T11:58:26;3.83;;;0.80;;
5585;SDS011;2815;54.094;12.112;2023-08-24T12:00:55;1.65;;;0.80;;
5585;SDS011;2815;54.094;12.112;2023-08-24T12:03:23;3.03;;;1.00;;
5585;SDS011;2815;54.094;12.112;2023-08-24T12:05:52;1.35;;;0.80;;
5585;SDS011;2815;54.094;12.112;2023-08-24T12:08:23;5.47;;;1.30;;
5585;SDS011;2815;54.094;12.112;2023-08-24T12:10:51;4.13;;;1.33;;
5585;SDS011;2815;54.094;12.112;2023-08-24T12:13:19;3.13;;;1.30;;
5585;SDS011;2815;54.094;12.112;2023-08-24T12:15:48;3.58;;;1.30;;
5585;SDS011;2815;54.094;12.112;2023-08-24T12:18:22;2.42;;;0.90;;
5585;SDS011;2815;54.094;12.112;2023-08-24T12:20:50;2.60;;;1.00;;
5585;SDS011;2815;54.094;12.112;2023-08-24T12:23:18;5.95;;;0.90;;
5585;SDS011;2815;54.094;12.112;2023-08-24T12:25:53;1.83;;;0.70;;
5585;SDS011;2815;54.094;12.112;2023-08-24T12:28:21;2.88;;;0.90;;
5585;SDS011;2815;54.094;12.112;2023-08-24T12:30:51;1.48;;;0.80;;
5585;SDS011;2815;54.094;12.112;2023-08-24T12:33:23;2.63;;;0.55;;
5585;SDS011;2815;54.094;12.112;2023-08-24T12:35:52;3.45;;;0.80;;
5585;SDS011;2815;54.094;12.112;2023-08-24T12:38:22;2.58;;;0.82;;
5585;SDS011;2815;54.094;12.112;2023-08-24T12:40:50;2.42;;;0.80;;
5585;SDS011;2815;54.094;12.112;2023-08-24T12:43:18;4.63;;;0.75;;
5585;SDS011;2815;54.094;12.112;2023-08-24T12:45:47;3.85;;;0.80;;
5585;SDS011;2815;54.094;12.112;2023-08-24T12:48:16;4.53;;;0.90;;
5585;SDS011;2815;54.094;12.112;2023-08-24T12:50:45;5.80;;;0.70;;
5585;SDS011;2815;54.094;12.112;2023-08-24T12:53:12;2.47;;;0.70;;
5585;SDS011;2815;54.094;12.112;2023-08-24T12:55:40;3.15;;;0.80;;
5585;SDS011;2815;54.094;12.112;2023-08-24T12:58:08;1.45;;;0.70;;
5585;SDS011;2815;54.094;12.112;2023-08-24T13:00:36;1.90;;;0.90;;
5585;SDS011;2815;54.094;12.112;2023-08-24T13:03:04;1.67;;;0.70;;
5585;SDS011;2815;54.094;12.112;2023-08-24T13:05:34;3.95;;;0.70;;
5585;SDS011;2815;54.094;12.112;2023-08-24T13:08:02;4.25;;;0.70;;
5585;SDS011;2815;54.094;12.112;2023-08-24T13:10:30;2.30;;;0.63;;
5585;SDS011;2815;54.094;12.112;2023-08-24T13:12:58;3.35;;;0.80;;
5585;SDS011;2815;54.094;12.112;2023-08-24T13:15:26;1.48;;;1.00;;
5585;SDS011;2815;54.094;12.112;2023-08-24T13:17:54;2.78;;;0.77;;
5585;SDS011;2815;54.094;12.112;2023-08-24T13:20:23;2.22;;;0.80;;
5585;SDS011;2815;54.094;12.112;2023-08-24T13:22:53;2.33;;;0.85;;
5585;SDS011;2815;54.094;12.112;2023-08-24T13:25:21;2.45;;;0.77;;
5585;SDS011;2815;54.094;12.112;2023-08-24T13:27:49;0.85;;;0.40;;
5585;SDS011;2815;54.094;12.112;2023-08-24T13:30:17;1.33;;;0.63;;
5585;SDS011;2815;54.094;12.112;2023-08-24T13:32:45;1.33;;;0.70;;
5585;SDS011;2815;54.094;12.112;2023-08-24T13:35:13;2.03;;;0.60;;
5585;SDS011;2815;54.094;12.112;2023-08-24T13:37:41;1.27;;;0.55;;
5585;SDS011;2815;54.094;12.112;2023-08-24T13:40:11;3.92;;;0.70;;
5585;SDS011;2815;54.094;12.112;2023-08-24T13:42:39;1.40;;;0.65;;
5585;SDS011;2815;54.094;12.112;2023-08-24T13:45:07;2.13;;;0.70;;
5585;SDS011;2815;54.094;12.112;2023-08-24T13:47:37;2.42;;;0.70;;
5585;SDS011;2815;54.094;12.112;2023-08-24T13:50:06;5.40;;;0.90;;
5585;SDS011;2815;54.094;12.112;2023-08-24T13:52:34;2.63;;;0.90;;
5585;SDS011;2815;54.094;12.112;2023-08-24T13:55:02;1.50;;;0.70;;
5585;SDS011;2815;54.094;12.112;2023-08-24T13:57:40;2.80;;;0.90;;
5585;SDS011;2815;54.094;12.112;2023-08-24T14:00:10;3.10;;;1.02;;
5585;SDS011;2815;54.094;12.112;2023-08-24T14:02:42;3.03;;;1.30;;
5585;SDS011;2815;54.094;12.112;2023-08-24T14:05:11;5.50;;;0.98;;
5585;SDS011;2815;54.094;12.112;2023-08-24T14:07:40;2.78;;;0.80;;
5585;SDS011;2815;54.094;12.112;2023-08-24T14:10:08;2.53;;;0.70;;
5585;SDS011;2815;54.094;12.112;2023-08-24T14:12:36;3.80;;;0.70;;
5585;SDS011;2815;54.094;12.112;2023-08-24T14:15:06;4.03;;;0.68;;
5585;SDS011;2815;54.094;12.112;2023-08-24T14:17:36;1.95;;;0.60;;
5585;SDS011;2815;54.094;12.112;2023-08-24T14:20:04;3.92;;;0.80;;
5585;SDS011;2815;54.094;12.112;2023-08-24T14:22:32;2.10;;;0.68;;
5585;SDS011;2815;54.094;12.112;2023-08-24T14:25:00;2.65;;;0.68;;
5585;SDS011;2815;54.094;12.112;2023-08-24T14:27:28;2.60;;;0.50;;
5585;SDS011;2815;54.094;12.112;2023-08-24T14:29:57;1.77;;;0.70;;
5585;SDS011;2815;54.094;12.112;2023-08-24T14:32:26;1.30;;;0.40;;
5585;SDS011;2815;54.094;12.112;2023-08-24T14:34:54;4.75;;;0.80;;
5585;SDS011;2815;54.094;12.112;2023-08-24T14:37:23;2.28;;;0.75;;
5585;SDS011;2815;54.094;12.112;2023-08-24T14:39:51;4.55;;;1.13;;
5585;SDS011;2815;54.094;12.112;2023-08-24T14:42:19;5.68;;;1.20;;
5585;SDS011;2815;54.094;12.112;2023-08-24T14:44:47;5.65;;;0.93;;
5585;SDS011;2815;54.094;12.112;2023-08-24T14:47:15;1.48;;;0.73;;
5585;SDS011;2815;54.094;12.112;2023-08-24T14:49:46;1.33;;;0.73;;
5585;SDS011;2815;54.094;12.112;2023-08-24T14:52:17;2.10;;;0.73;;
5585;SDS011;2815;54.094;12.112;2023-08-24T14:54:46;2.22;;;0.52;;
5585;SDS011;2815;54.094;12.112;2023-08-24T14:57:14;1.10;;;0.50;;
5585;SDS011;2815;54.094;12.112;2023-08-24T14:59:42;3.22;;;0.60;;
5585;SDS011;2815;54.094;12.112;2023-08-24T15:02:10;0.93;;;0.50;;
5585;SDS011;2815;54.094;12.112;2023-08-24T15:04:38;1.38;;;0.57;;
5585;SDS011;2815;54.094;12.112;2023-08-24T15:07:07;2.83;;;0.82;;
5585;SDS011;2815;54.094;12.112;2023-08-24T15:09:36;2.60;;;0.75;;
5585;SDS011;2815;54.094;12.112;2023-08-24T15:12:26;3.00;;;0.98;;
5585;SDS011;2815;54.094;12.112;2023-08-24T15:14:57;3.15;;;1.30;;
5585;SDS011;2815;54.094;12.112;2023-08-24T15:17:28;1.08;;;0.73;;